Crown Of Scandinavia — OXRA6 — position and weather

sailwx.info

Track history (hours):
 
Tides and Currents Weather Stations Pressure Air Temp Water Temp Dewpoint Dewpoint Depression Visibility Wind Speed Wind Dir Waves Ship Positions

Crown Of Scandinavia

Last reported at 2018-Feb-24 23:30 UTC. Time now 2018-Feb-24 23:52 UTC.
Position N 57°41' E 011°22'.

Length 171 m; draft 6.3 m.

Type: Ship. MMSI: 219592000.

Date/timePositionNaut miles runAvg speedWind from/ knotsBaromVisibWave heightAir tempDewpointWater temp
2018-Feb-24 23:30N 57°41' E 011°22'815.8
2018-Feb-24 23:00N 57°34' E 011°27'816.1
2018-Feb-24 22:30N 57°26' E 011°31'816.5
2018-Feb-24 22:00N 57°18' E 011°36'816.9
2018-Feb-24 21:30N 57°10' E 011°41'816.5
2018-Feb-24 21:00N 57°02' E 011°44'4716.6
2018-Feb-24 18:12N 56°20' E 012°21'316.9
2018-Feb-24 18:00N 56°17' E 012°23'816.8
2018-Feb-24 17:30N 56°09' E 012°29'917.3
2018-Feb-24 17:00N 56°03' E 012°40'816.6
2018-Feb-24 16:30N 55°55' E 012°44'815.9
2018-Feb-24 16:00N 55°47' E 012°42'612.4
2018-Feb-24 15:30N 55°42' E 012°36'0 0.0
2018-Feb-24 15:00N 55°42' E 012°36'0 0.0
2018-Feb-24 14:30N 55°42' E 012°36'0 0.0
2018-Feb-24 14:01N 55°42' E 012°36'0 0.0
2018-Feb-24 13:31N 55°42' E 012°36'0 0.0
2018-Feb-24 13:01N 55°42' E 012°36'0 0.0
2018-Feb-24 12:31N 55°42' E 012°36'0 0.0
2018-Feb-24 12:01N 55°42' E 012°36'0 0.0
2018-Feb-24 11:31N 55°42' E 012°36'0 0.0
2018-Feb-24 11:01N 55°42' E 012°36'0 0.0
2018-Feb-24 10:31N 55°42' E 012°36'0 0.0
2018-Feb-24 10:00N 55°42' E 012°36'0 0.0
2018-Feb-24 09:31N 55°42' E 012°36'0 0.0
2018-Feb-24 09:01N 55°42' E 012°36'0 0.9
2018-Feb-24 08:31N 55°42' E 012°36'714.0
2018-Feb-24 08:01N 55°49' E 012°42'815.6
2018-Feb-24 07:31N 55°56' E 012°40'815.3
2018-Feb-24 07:01N 56°04' E 012°38'714.3
2018-Feb-24 06:31N 56°09' E 012°29'815.5
2018-Feb-24 06:01N 56°16' E 012°24'816.0
2018-Feb-24 05:30N 56°24' E 012°19'5416.8
2018-Feb-24 02:18N 57°15' E 011°51'516.9
2018-Feb-24 02:01N 57°19' E 011°46'816.9
2018-Feb-24 01:31N 57°27' E 011°39'917.0
2018-Feb-24 01:01N 57°35' E 011°32'917.6
2018-Feb-24 00:31N 57°43' E 011°26'917.4
2018-Feb-24 00:01N 57°51' E 011°20'816.9
2018-Feb-23 23:31N 57°59' E 011°14'816.3
2018-Feb-23 23:01N 58°06' E 011°08'815.9
2018-Feb-23 22:31N 58°14' E 011°04'815.6
2018-Feb-23 22:01N 58°21' E 010°60'2815.8
2018-Feb-23 20:13N 58°48' E 010°44'416.4
2018-Feb-23 20:00N 58°52' E 010°43'817.0
2018-Feb-23 19:31N 59°00' E 010°41'816.9
2018-Feb-23 19:01N 59°09' E 010°39'816.8
2018-Feb-23 18:31N 59°17' E 010°36'816.8
2018-Feb-23 18:01N 59°25' E 010°33'815.7
2018-Feb-23 17:31N 59°33' E 010°37'714.0
2018-Feb-23 17:00N 59°40' E 010°37'612.5
2018-Feb-23 16:31N 59°46' E 010°33'815.5
2018-Feb-23 16:01N 59°53' E 010°39'3 5.9
2018-Feb-23 15:30N 59°54' E 010°45'0 0.0
2018-Feb-23 14:59N 59°54' E 010°45'0 0.0
2018-Feb-23 14:26N 59°54' E 010°45'0 0.0
2018-Feb-23 13:59N 59°54' E 010°45'0 0.0
2018-Feb-23 13:29N 59°54' E 010°45'0 0.0
2018-Feb-23 12:59N 59°54' E 010°45'0 0.0
2018-Feb-23 12:29N 59°54' E 010°45'0 0.0
2018-Feb-23 11:59N 59°54' E 010°45'0 0.0
2018-Feb-23 11:29N 59°54' E 010°45'0 0.0
2018-Feb-23 10:59N 59°54' E 010°45'0 0.0
2018-Feb-23 10:29N 59°54' E 010°45'0 0.0
2018-Feb-23 09:59N 59°54' E 010°45'0 0.0
2018-Feb-23 09:29N 59°54' E 010°45'0 0.0
2018-Feb-23 08:59N 59°54' E 010°45'0 0.5
2018-Feb-23 08:31N 59°54' E 010°44'612.1
2018-Feb-23 08:00N 59°50' E 010°36'714.1
2018-Feb-23 07:31N 59°43' E 010°35'713.4
2018-Feb-23 07:00N 59°36' E 010°38'815.0
2018-Feb-23 06:30N 59°29' E 010°35'714.9
2018-Feb-23 06:00N 59°21' E 010°35'815.4
2018-Feb-23 05:30N 59°14' E 010°38'815.2
2018-Feb-23 05:01N 59°06' E 010°40'815.1
2018-Feb-23 04:30N 58°59' E 010°43'714.9
2018-Feb-23 04:00N 58°52' E 010°45'1115.3
2018-Feb-23 03:16N 58°40' E 010°49'416.0
2018-Feb-23 03:00N 58°36' E 010°50'816.4
2018-Feb-23 02:30N 58°28' E 010°52'917.2
2018-Feb-23 02:00N 58°20' E 010°57'917.4
2018-Feb-23 01:30N 58°12' E 011°01'917.5
2018-Feb-23 01:00N 58°03' E 011°06'917.1
2018-Feb-23 00:30N 57°55' E 011°11'816.8
2018-Feb-23 00:00N 57°47' E 011°17'816.5
2018-Feb-22 23:30N 57°40' E 011°22'816.8
2018-Feb-22 23:00N 57°32' E 011°27'816.8
2018-Feb-22 22:30N 57°24' E 011°32'816.6
2018-Feb-22 22:00N 57°16' E 011°36'917.0
2018-Feb-22 21:30N 57°07' E 011°41'816.5
2018-Feb-22 21:00N 56°60' E 011°46'4516.5
2018-Feb-22 18:18N 56°20' E 012°22'517.3
2018-Feb-22 18:00N 56°15' E 012°25'917.2
2018-Feb-22 17:30N 56°07' E 012°32'816.7
2018-Feb-22 17:00N 56°00' E 012°41'816.2
2018-Feb-22 16:30N 55°53' E 012°45'815.6
2018-Feb-22 16:00N 55°45' E 012°41'4 8.4
2018-Feb-22 15:30N 55°42' E 012°36'0 0.0
2018-Feb-22 14:59N 55°42' E 012°36'0 0.0
2018-Feb-22 14:29N 55°42' E 012°36'0 0.0
2018-Feb-22 13:59N 55°42' E 012°36'0 0.0
2018-Feb-22 13:29N 55°42' E 012°36'0 0.0
2018-Feb-22 12:59N 55°42' E 012°36'0 0.0
2018-Feb-22 12:29N 55°42' E 012°36'0 0.0
2018-Feb-22 11:59N 55°42' E 012°36'0 0.0
2018-Feb-22 11:29N 55°42' E 012°36'0 0.0
2018-Feb-22 10:59N 55°42' E 012°36'0 0.0
2018-Feb-22 10:29N 55°42' E 012°36'0 0.0
2018-Feb-22 09:59N 55°42' E 012°36'0 0.0
2018-Feb-22 09:29N 55°42' E 012°36'0 0.0
2018-Feb-22 08:59N 55°42' E 012°36'1 1.4
2018-Feb-22 08:30N 55°43' E 012°37'713.6
2018-Feb-22 08:00N 55°49' E 012°42'815.5
2018-Feb-22 07:30N 55°56' E 012°40'815.3
2018-Feb-22 07:00N 56°04' E 012°38'714.8
2018-Feb-22 06:30N 56°09' E 012°29'815.2
2018-Feb-22 06:00N 56°17' E 012°24'815.1
2018-Feb-22 05:30N 56°24' E 012°20'916.5
2018-Feb-22 04:58N 56°32' E 012°15'4116.6
2018-Feb-22 02:31N 57°11' E 011°53'116.7
2018-Feb-22 02:28N 57°12' E 011°53'816.4
2018-Feb-22 02:00N 57°18' E 011°46'816.5
2018-Feb-22 01:30N 57°26' E 011°40'816.6
2018-Feb-22 01:00N 57°33' E 011°33'816.6
2018-Feb-22 00:31N 57°41' E 011°27'816.9
2018-Feb-22 00:00N 57°49' E 011°22'816.6
2018-Feb-21 23:30N 57°57' E 011°16'815.9
2018-Feb-21 23:00N 58°04' E 011°11'816.0
2018-Feb-21 22:30N 58°12' E 011°05'815.9
2018-Feb-21 22:00N 58°19' E 010°59'816.1
2018-Feb-21 21:30N 58°26' E 010°53'2215.9
2018-Feb-21 20:07N 58°48' E 010°44'216.6
2018-Feb-21 20:00N 58°50' E 010°44'816.8
2018-Feb-21 19:30N 58°58' E 010°42'816.6
2018-Feb-21 19:00N 59°06' E 010°39'816.6
2018-Feb-21 18:30N 59°14' E 010°37'816.8
2018-Feb-21 18:00N 59°23' E 010°34'816.5
2018-Feb-21 17:30N 59°31' E 010°35'816.0
2018-Feb-21 17:00N 59°39' E 010°37'612.8
2018-Feb-21 16:30N 59°45' E 010°33'815.2
2018-Feb-21 16:00N 59°52' E 010°38'4 8.1
2018-Feb-21 15:30N 59°54' E 010°45'0 0.0
2018-Feb-21 15:00N 59°54' E 010°45'0 0.0
2018-Feb-21 14:30N 59°54' E 010°45'0 0.0
2018-Feb-21 14:00N 59°54' E 010°45'0 0.0
2018-Feb-21 13:30N 59°54' E 010°45'0 0.0
2018-Feb-21 13:00N 59°54' E 010°45'0 0.0
2018-Feb-21 12:30N 59°54' E 010°45'0 0.0
2018-Feb-21 12:00N 59°54' E 010°45'0 0.0
2018-Feb-21 11:30N 59°54' E 010°45'0 0.0
2018-Feb-21 11:00N 59°54' E 010°45'0 0.0
2018-Feb-21 10:30N 59°54' E 010°45'0 0.0
2018-Feb-21 10:00N 59°54' E 010°45'0 0.0
2018-Feb-21 09:30N 59°54' E 010°45'0 0.0
2018-Feb-21 09:00N 59°54' E 010°45'0 0.7
2018-Feb-21 08:30N 59°54' E 010°44'714.1
2018-Feb-21 08:00N 59°49' E 010°35'612.2
2018-Feb-21 07:30N 59°43' E 010°36'714.2
2018-Feb-21 07:00N 59°36' E 010°38'815.2
2018-Feb-21 06:30N 59°28' E 010°34'715.0
2018-Feb-21 06:00N 59°21' E 010°35'815.2
2018-Feb-21 05:30N 59°13' E 010°38'815.3
2018-Feb-21 05:00N 59°06' E 010°40'815.3
2018-Feb-21 04:30N 58°58' E 010°43'815.3
2018-Feb-21 04:00N 58°51' E 010°46'815.6
2018-Feb-21 03:30N 58°43' E 010°48'816.4
2018-Feb-21 03:00N 58°35' E 010°51'816.8
2018-Feb-21 02:30N 58°27' E 010°54'917.1
2018-Feb-21 02:00N 58°19' E 010°59'917.2
2018-Feb-21 01:30N 58°10' E 011°04'917.4
2018-Feb-21 01:00N 58°02' E 011°08'917.3
2018-Feb-21 00:30N 57°54' E 011°13'816.9
2018-Feb-21 00:00N 57°46' E 011°18'816.0
2018-Feb-20 23:30N 57°38' E 011°24'816.0
2018-Feb-20 23:00N 57°31' E 011°30'816.3
2018-Feb-20 22:31N 57°23' E 011°32'816.1
2018-Feb-20 22:00N 57°15' E 011°36'816.2
2018-Feb-20 21:30N 57°07' E 011°41'816.4
2018-Feb-20 21:00N 56°60' E 011°47'4516.1
2018-Feb-20 18:11N 56°19' E 012°23'316.9
2018-Feb-20 18:00N 56°16' E 012°25'817.3
2018-Feb-20 17:30N 56°08' E 012°31'917.4
2018-Feb-20 17:00N 56°01' E 012°40'816.4
2018-Feb-20 16:30N 55°53' E 012°44'815.6
2018-Feb-20 16:00N 55°46' E 012°41'5 9.7
2018-Feb-20 15:30N 55°42' E 012°36'0 0.0
2018-Feb-20 15:00N 55°42' E 012°36'0 0.0
2018-Feb-20 14:30N 55°42' E 012°36'0 0.0
2018-Feb-20 14:00N 55°42' E 012°36'0 0.0
2018-Feb-20 13:30N 55°42' E 012°36'0 0.0
2018-Feb-20 13:01N 55°42' E 012°36'0 0.0
2018-Feb-20 12:30N 55°42' E 012°36'0 0.0
2018-Feb-20 12:00N 55°42' E 012°36'0 0.0
2018-Feb-20 11:30N 55°42' E 012°36'0 0.0
2018-Feb-20 11:01N 55°42' E 012°36'0 0.0
2018-Feb-20 10:30N 55°42' E 012°36'0 0.0
2018-Feb-20 10:00N 55°42' E 012°36'0 0.0
2018-Feb-20 09:31N 55°42' E 012°36'0 0.0
2018-Feb-20 09:00N 55°42' E 012°36'0 0.7
2018-Feb-20 08:31N 55°42' E 012°36'612.9
2018-Feb-20 08:01N 55°48' E 012°42'815.4
2018-Feb-20 07:30N 55°56' E 012°39'815.7
2018-Feb-20 07:01N 56°03' E 012°38'714.4
2018-Feb-20 06:31N 56°09' E 012°30'815.5
2018-Feb-20 06:00N 56°16' E 012°25'1015.9
2018-Feb-20 05:23N 56°25' E 012°19'717.2
2018-Feb-20 05:00N 56°32' E 012°16'4316.8
2018-Feb-20 02:25N 57°13' E 011°52'716.2
2018-Feb-20 02:01N 57°19' E 011°47'816.2
2018-Feb-20 01:31N 57°26' E 011°40'816.8
2018-Feb-20 01:01N 57°33' E 011°32'816.8
2018-Feb-20 00:31N 57°41' E 011°26'917.0
2018-Feb-20 00:00N 57°49' E 011°21'816.6
2018-Feb-19 23:30N 57°57' E 011°14'816.2
2018-Feb-19 23:01N 58°05' E 011°10'816.1
2018-Feb-19 22:30N 58°12' E 011°06'815.7
2018-Feb-19 22:01N 58°20' E 011°00'815.3
2018-Feb-19 21:30N 58°27' E 010°55'815.3
2018-Feb-19 21:00N 58°34' E 010°49'714.7
2018-Feb-19 20:31N 58°41' E 010°44'815.7
2018-Feb-19 20:01N 58°48' E 010°43'816.3
2018-Feb-19 19:31N 58°57' E 010°42'816.3
2018-Feb-19 19:01N 59°05' E 010°40'816.7
2018-Feb-19 18:31N 59°13' E 010°37'817.0
2018-Feb-19 18:01N 59°21' E 010°35'816.4
2018-Feb-19 17:31N 59°30' E 010°34'816.3
2018-Feb-19 17:01N 59°38' E 010°37'713.7
2018-Feb-19 16:31N 59°44' E 010°33'816.0
2018-Feb-19 16:00N 59°52' E 010°37'4 8.7
2018-Feb-19 15:30N 59°54' E 010°45'0 0.0
2018-Feb-19 14:59N 59°54' E 010°45'0 0.0
2018-Feb-19 14:29N 59°54' E 010°45'0 0.0
2018-Feb-19 13:59N 59°54' E 010°45'0 0.0
2018-Feb-19 13:29N 59°54' E 010°45'0 0.0
2018-Feb-19 12:59N 59°54' E 010°45'0 0.0
2018-Feb-19 12:29N 59°54' E 010°45'0 0.0
2018-Feb-19 11:59N 59°54' E 010°45'0 0.0
2018-Feb-19 11:29N 59°54' E 010°45'0 0.0
2018-Feb-19 10:59N 59°54' E 010°45'0 0.0
2018-Feb-19 10:29N 59°54' E 010°45'0 0.0
2018-Feb-19 09:59N 59°54' E 010°45'0 0.0
2018-Feb-19 09:29N 59°54' E 010°45'0 0.0
2018-Feb-19 08:59N 59°54' E 010°45'1 1.6
2018-Feb-19 08:31N 59°54' E 010°43'714.4
2018-Feb-19 08:01N 59°48' E 010°35'714.6
2018-Feb-19 07:31N 59°41' E 010°37'815.2
2018-Feb-19 07:00N 59°33' E 010°38'816.0
2018-Feb-19 06:30N 59°26' E 010°34'816.1
2018-Feb-19 06:00N 59°18' E 010°37'815.9
2018-Feb-19 05:30N 59°10' E 010°40'815.4
2018-Feb-19 05:00N 59°02' E 010°42'815.0
2018-Feb-19 04:30N 58°55' E 010°43'815.2
2018-Feb-19 04:00N 58°47' E 010°46'815.4
2018-Feb-19 03:30N 58°40' E 010°48'815.8
2018-Feb-19 03:00N 58°32' E 010°51'916.7
2018-Feb-19 02:29N 58°24' E 010°56'816.5
2018-Feb-19 02:00N 58°16' E 011°01'816.8
2018-Feb-19 01:30N 58°08' E 011°06'816.8
2018-Feb-19 01:00N 58°00' E 011°10'816.7
2018-Feb-19 00:30N 57°52' E 011°14'816.9
2018-Feb-19 00:00N 57°44' E 011°19'917.1
2018-Feb-18 23:30N 57°36' E 011°24'816.7
2018-Feb-18 23:00N 57°28' E 011°29'816.3
2018-Feb-18 22:30N 57°20' E 011°33'816.4
2018-Feb-18 22:00N 57°12' E 011°38'816.2
2018-Feb-18 21:30N 57°05' E 011°43'3316.1
2018-Feb-18 19:26N 56°35' E 012°11'715.5
2018-Feb-18 19:00N 56°29' E 012°16'1016.0
2018-Feb-18 18:21N 56°19' E 012°22'616.4
2018-Feb-18 18:00N 56°14' E 012°27'917.1
2018-Feb-18 17:30N 56°07' E 012°34'917.3
2018-Feb-18 17:00N 55°59' E 012°42'816.9
2018-Feb-18 16:30N 55°51' E 012°44'815.7
2018-Feb-18 16:00N 55°43' E 012°39'2 4.4
2018-Feb-18 15:30N 55°42' E 012°36'0 0.0
2018-Feb-18 15:00N 55°42' E 012°36'0 0.0
2018-Feb-18 14:30N 55°42' E 012°36'0 0.0
2018-Feb-18 14:00N 55°42' E 012°36'0 0.0
2018-Feb-18 13:30N 55°42' E 012°36'0 0.0
2018-Feb-18 13:00N 55°42' E 012°36'0 0.0
2018-Feb-18 12:30N 55°42' E 012°36'0 0.0
2018-Feb-18 12:00N 55°42' E 012°36'0 0.0
2018-Feb-18 11:30N 55°42' E 012°36'0 0.0
2018-Feb-18 11:00N 55°42' E 012°36'0 0.0
2018-Feb-18 10:30N 55°42' E 012°36'0 0.0
2018-Feb-18 10:00N 55°42' E 012°36'0 0.0
2018-Feb-18 09:30N 55°42' E 012°36'0 0.0
2018-Feb-18 09:00N 55°42' E 012°36'0 0.8
2018-Feb-18 08:30N 55°42' E 012°36'612.7
2018-Feb-18 08:00N 55°48' E 012°42'815.3
2018-Feb-18 07:30N 55°55' E 012°39'815.1
2018-Feb-18 07:01N 56°03' E 012°39'714.9
2018-Feb-18 06:30N 56°08' E 012°30'815.9
2018-Feb-18 06:00N 56°16' E 012°25'816.2
2018-Feb-18 05:30N 56°23' E 012°20'917.1
2018-Feb-18 04:59N 56°32' E 012°15'4617.1
2018-Feb-18 02:18N 57°16' E 011°50'516.8
2018-Feb-18 02:00N 57°20' E 011°45'917.4
2018-Feb-18 01:30N 57°28' E 011°39'917.7
2018-Feb-18 01:01N 57°36' E 011°31'917.1
2018-Feb-18 00:30N 57°44' E 011°26'917.5
2018-Feb-18 00:00N 57°52' E 011°20'816.5
2018-Feb-17 23:30N 57°60' E 011°15'815.1
2018-Feb-17 23:00N 58°07' E 011°10'715.1
2018-Feb-17 22:30N 58°14' E 011°04'714.4
2018-Feb-17 22:00N 58°21' E 010°60'714.2
2018-Feb-17 21:30N 58°27' E 010°55'714.4
2018-Feb-17 21:00N 58°34' E 010°51'714.1
2018-Feb-17 20:30N 58°41' E 010°46'714.3
2018-Feb-17 20:00N 58°48' E 010°44'815.8
2018-Feb-17 19:30N 58°56' E 010°42'816.3
2018-Feb-17 19:00N 59°04' E 010°40'816.6
2018-Feb-17 18:30N 59°12' E 010°38'816.5
2018-Feb-17 18:00N 59°20' E 010°35'816.7
2018-Feb-17 17:30N 59°28' E 010°34'816.5
2018-Feb-17 17:00N 59°36' E 010°38'714.2
2018-Feb-17 16:30N 59°43' E 010°34'815.9
2018-Feb-17 16:01N 59°51' E 010°36'510.4
2018-Feb-17 15:30N 59°54' E 010°45'0 0.1
2018-Feb-17 15:00N 59°54' E 010°45'0 0.0
2018-Feb-17 14:30N 59°54' E 010°45'0 0.0
2018-Feb-17 14:00N 59°54' E 010°45'0 0.0
2018-Feb-17 13:30N 59°54' E 010°45'0 0.0
2018-Feb-17 13:00N 59°54' E 010°45'0 0.0
2018-Feb-17 12:30N 59°54' E 010°45'0 0.0
2018-Feb-17 12:00N 59°54' E 010°45'0 0.0
2018-Feb-17 11:30N 59°54' E 010°45'0 0.0
2018-Feb-17 11:00N 59°54' E 010°45'0 0.0
2018-Feb-17 10:30N 59°54' E 010°45'0 0.0
2018-Feb-17 10:00N 59°54' E 010°45'0 0.0
2018-Feb-17 09:30N 59°54' E 010°45'0 0.0
2018-Feb-17 09:00N 59°54' E 010°45'0 0.7
2018-Feb-17 08:30N 59°54' E 010°44'714.2
2018-Feb-17 08:00N 59°49' E 010°35'815.1
2018-Feb-17 07:30N 59°41' E 010°36'714.5
2018-Feb-17 07:00N 59°34' E 010°38'816.0
2018-Feb-17 06:30N 59°26' E 010°34'816.2
2018-Feb-17 06:00N 59°18' E 010°36'816.3
2018-Feb-17 05:30N 59°10' E 010°39'816.2
2018-Feb-17 05:00N 59°02' E 010°38'816.2
2018-Feb-17 04:30N 58°54' E 010°36'917.6
2018-Feb-17 04:00N 58°45' E 010°35'917.8
2018-Feb-17 03:30N 58°36' E 010°36'917.2
2018-Feb-17 03:00N 58°28' E 010°39'917.3
2018-Feb-17 02:30N 58°20' E 010°45'917.2
2018-Feb-17 02:00N 58°11' E 010°49'917.4
2018-Feb-17 01:30N 58°03' E 010°53'917.3
2018-Feb-17 01:00N 57°55' E 010°58'917.1
2018-Feb-17 00:30N 57°47' E 011°03'815.7
2018-Feb-17 00:00N 57°40' E 011°11'713.3
2018-Feb-16 23:30N 57°35' E 011°19'917.6
2018-Feb-16 23:01N 57°27' E 011°27'816.8
2018-Feb-16 22:31N 57°20' E 011°33'816.7
2018-Feb-16 22:01N 57°12' E 011°37'816.7
2018-Feb-16 21:30N 57°04' E 011°43'1816.4
2018-Feb-16 20:23N 56°48' E 011°59'716.0
2018-Feb-16 19:56N 56°41' E 012°04'715.7
2018-Feb-16 19:31N 56°35' E 012°09'1815.5
2018-Feb-16 18:21N 56°18' E 012°21'515.6
2018-Feb-16 18:00N 56°14' E 012°26'815.3
2018-Feb-16 17:31N 56°07' E 012°33'713.8
2018-Feb-16 17:00N 56°01' E 012°41'714.8
2018-Feb-16 16:31N 55°54' E 012°44'714.9
2018-Feb-16 16:01N 55°47' E 012°42'611.9
2018-Feb-16 15:31N 55°42' E 012°36'0 0.2
2018-Feb-16 15:00N 55°42' E 012°36'0 0.0
2018-Feb-16 14:30N 55°42' E 012°36'0 0.0
2018-Feb-16 14:00N 55°42' E 012°36'0 0.0
2018-Feb-16 13:30N 55°42' E 012°36'0 0.0
2018-Feb-16 13:00N 55°42' E 012°36'0 0.0
2018-Feb-16 12:30N 55°42' E 012°36'0 0.0
2018-Feb-16 12:00N 55°42' E 012°36'0 0.0
2018-Feb-16 11:30N 55°42' E 012°36'0 0.0
2018-Feb-16 11:00N 55°42' E 012°36'0 0.0
2018-Feb-16 10:30N 55°42' E 012°36'0 0.0
2018-Feb-16 10:00N 55°42' E 012°36'0 0.0
2018-Feb-16 09:30N 55°42' E 012°36'0 0.0
2018-Feb-16 09:00N 55°42' E 012°36'1 2.7
2018-Feb-16 08:30N 55°43' E 012°38'815.2
2018-Feb-16 08:00N 55°50' E 012°42'816.6
2018-Feb-16 07:30N 55°58' E 012°40'817.0
2018-Feb-16 07:00N 56°06' E 012°34'917.6
2018-Feb-16 06:30N 56°14' E 012°26'1018.1
2018-Feb-16 05:57N 56°23' E 012°20'5418.9
2018-Feb-16 03:04N 57°15' E 011°51'118.9
2018-Feb-16 03:00N 57°16' E 011°50'918.3
2018-Feb-16 02:30N 57°24' E 011°42'917.4
2018-Feb-16 02:00N 57°32' E 011°34'917.1
2018-Feb-16 01:30N 57°40' E 011°28'917.7
2018-Feb-16 01:00N 57°48' E 011°22'816.8
2018-Feb-16 00:30N 57°56' E 011°17'815.4
2018-Feb-16 00:00N 58°03' E 011°12'714.5
2018-Feb-15 23:30N 58°10' E 011°07'714.1
2018-Feb-15 23:00N 58°17' E 011°03'714.3
2018-Feb-15 22:30N 58°23' E 010°58'714.8
2018-Feb-15 22:00N 58°30' E 010°54'816.0
2018-Feb-15 21:30N 58°38' E 010°50'714.0
2018-Feb-15 21:00N 58°45' E 010°47'714.2
2018-Feb-15 20:30N 58°52' E 010°45'714.4
2018-Feb-15 20:01N 58°59' E 010°42'713.8
2018-Feb-15 19:30N 59°06' E 010°40'713.6
2018-Feb-15 19:00N 59°13' E 010°37'713.8
2018-Feb-15 18:30N 59°19' E 010°35'713.3
2018-Feb-15 18:01N 59°26' E 010°33'714.2
2018-Feb-15 17:31N 59°33' E 010°36'714.2
2018-Feb-15 17:00N 59°40' E 010°37'713.1
2018-Feb-15 16:30N 59°46' E 010°33'713.6
2018-Feb-15 16:00N 59°52' E 010°39'3 6.8
2018-Feb-15 15:30N 59°54' E 010°45'0 0.0
2018-Feb-15 15:00N 59°54' E 010°45'0 0.0
2018-Feb-15 14:30N 59°54' E 010°45'0 0.0
2018-Feb-15 14:00N 59°54' E 010°45'0 0.0
2018-Feb-15 13:30N 59°54' E 010°45'0 0.0
2018-Feb-15 13:00N 59°54' E 010°45'0 0.0
2018-Feb-15 12:30N 59°54' E 010°45'0 0.0
2018-Feb-15 12:00N 59°54' E 010°45'0 0.0
2018-Feb-15 11:30N 59°54' E 010°45'0 0.0
2018-Feb-15 11:00N 59°54' E 010°45'0 0.0
2018-Feb-15 10:30N 59°54' E 010°45'0 0.0
2018-Feb-15 10:00N 59°54' E 010°45'0 0.0
2018-Feb-15 09:30N 59°54' E 010°45'0 0.0
2018-Feb-15 09:00N 59°54' E 010°45'0 0.5
2018-Feb-15 08:30N 59°54' E 010°44'511.1
2018-Feb-15 08:00N 59°50' E 010°36'714.8
2018-Feb-15 07:30N 59°43' E 010°35'713.5
2018-Feb-15 07:00N 59°36' E 010°38'714.7
2018-Feb-15 06:31N 59°29' E 010°35'815.1
2018-Feb-15 06:00N 59°22' E 010°36'815.8
2018-Feb-15 05:31N 59°14' E 010°38'815.6
2018-Feb-15 05:00N 59°06' E 010°41'815.1
2018-Feb-15 04:31N 58°59' E 010°42'714.5
2018-Feb-15 04:00N 58°51' E 010°44'815.4
2018-Feb-15 03:30N 58°44' E 010°46'815.8
2018-Feb-15 03:00N 58°36' E 010°48'815.8
2018-Feb-15 02:30N 58°28' E 010°53'815.4
2018-Feb-15 02:01N 58°21' E 010°57'917.1
2018-Feb-15 01:30N 58°13' E 011°02'816.4
2018-Feb-15 01:00N 58°05' E 011°06'816.8
2018-Feb-15 00:30N 57°57' E 011°11'917.1
2018-Feb-15 00:01N 57°49' E 011°16'  
Track history (hours):
 
Tides and Currents Weather Stations Pressure Air Temp Water Temp Dewpoint Dewpoint Depression Visibility Wind Speed Wind Dir Waves Ship Positions

Crown Of Scandinavia

Last reported at 2018-Feb-24 23:30 UTC. Time now 2018-Feb-24 23:52 UTC.
Position N 57°41' E 011°22'.

Length 171 m; draft 6.3 m.

Type: Ship. MMSI: 219592000.

Date/timePositionNaut miles runAvg speedWind from/ knotsBaromVisibWave heightAir tempDewpointWater temp
2018-Feb-24 23:30N 57°41' E 011°22'815.8
2018-Feb-24 23:00N 57°34' E 011°27'816.1
2018-Feb-24 22:30N 57°26' E 011°31'816.5
2018-Feb-24 22:00N 57°18' E 011°36'816.9
2018-Feb-24 21:30N 57°10' E 011°41'816.5
2018-Feb-24 21:00N 57°02' E 011°44'4716.6
2018-Feb-24 18:12N 56°20' E 012°21'316.9
2018-Feb-24 18:00N 56°17' E 012°23'816.8
2018-Feb-24 17:30N 56°09' E 012°29'917.3
2018-Feb-24 17:00N 56°03' E 012°40'816.6
2018-Feb-24 16:30N 55°55' E 012°44'815.9
2018-Feb-24 16:00N 55°47' E 012°42'612.4
2018-Feb-24 15:30N 55°42' E 012°36'0 0.0
2018-Feb-24 15:00N 55°42' E 012°36'0 0.0
2018-Feb-24 14:30N 55°42' E 012°36'0 0.0
2018-Feb-24 14:01N 55°42' E 012°36'0 0.0
2018-Feb-24 13:31N 55°42' E 012°36'0 0.0
2018-Feb-24 13:01N 55°42' E 012°36'0 0.0
2018-Feb-24 12:31N 55°42' E 012°36'0 0.0
2018-Feb-24 12:01N 55°42' E 012°36'0 0.0
2018-Feb-24 11:31N 55°42' E 012°36'0 0.0
2018-Feb-24 11:01N 55°42' E 012°36'0 0.0
2018-Feb-24 10:31N 55°42' E 012°36'0 0.0
2018-Feb-24 10:00N 55°42' E 012°36'0 0.0
2018-Feb-24 09:31N 55°42' E 012°36'0 0.0
2018-Feb-24 09:01N 55°42' E 012°36'0 0.9
2018-Feb-24 08:31N 55°42' E 012°36'714.0
2018-Feb-24 08:01N 55°49' E 012°42'815.6
2018-Feb-24 07:31N 55°56' E 012°40'815.3
2018-Feb-24 07:01N 56°04' E 012°38'714.3
2018-Feb-24 06:31N 56°09' E 012°29'815.5
2018-Feb-24 06:01N 56°16' E 012°24'816.0
2018-Feb-24 05:30N 56°24' E 012°19'5416.8
2018-Feb-24 02:18N 57°15' E 011°51'516.9
2018-Feb-24 02:01N 57°19' E 011°46'816.9
2018-Feb-24 01:31N 57°27' E 011°39'917.0
2018-Feb-24 01:01N 57°35' E 011°32'917.6
2018-Feb-24 00:31N 57°43' E 011°26'917.4
2018-Feb-24 00:01N 57°51' E 011°20'816.9
2018-Feb-23 23:31N 57°59' E 011°14'816.3
2018-Feb-23 23:01N 58°06' E 011°08'815.9
2018-Feb-23 22:31N 58°14' E 011°04'815.6
2018-Feb-23 22:01N 58°21' E 010°60'2815.8
2018-Feb-23 20:13N 58°48' E 010°44'416.4
2018-Feb-23 20:00N 58°52' E 010°43'817.0
2018-Feb-23 19:31N 59°00' E 010°41'816.9
2018-Feb-23 19:01N 59°09' E 010°39'816.8
2018-Feb-23 18:31N 59°17' E 010°36'816.8
2018-Feb-23 18:01N 59°25' E 010°33'815.7
2018-Feb-23 17:31N 59°33' E 010°37'714.0
2018-Feb-23 17:00N 59°40' E 010°37'612.5
2018-Feb-23 16:31N 59°46' E 010°33'815.5
2018-Feb-23 16:01N 59°53' E 010°39'3 5.9
2018-Feb-23 15:30N 59°54' E 010°45'0 0.0
2018-Feb-23 14:59N 59°54' E 010°45'0 0.0
2018-Feb-23 14:26N 59°54' E 010°45'0 0.0
2018-Feb-23 13:59N 59°54' E 010°45'0 0.0
2018-Feb-23 13:29N 59°54' E 010°45'0 0.0
2018-Feb-23 12:59N 59°54' E 010°45'0 0.0
2018-Feb-23 12:29N 59°54' E 010°45'0 0.0
2018-Feb-23 11:59N 59°54' E 010°45'0 0.0
2018-Feb-23 11:29N 59°54' E 010°45'0 0.0
2018-Feb-23 10:59N 59°54' E 010°45'0 0.0
2018-Feb-23 10:29N 59°54' E 010°45'0 0.0
2018-Feb-23 09:59N 59°54' E 010°45'0 0.0
2018-Feb-23 09:29N 59°54' E 010°45'0 0.0
2018-Feb-23 08:59N 59°54' E 010°45'0 0.5
2018-Feb-23 08:31N 59°54' E 010°44'612.1
2018-Feb-23 08:00N 59°50' E 010°36'714.1
2018-Feb-23 07:31N 59°43' E 010°35'713.4
2018-Feb-23 07:00N 59°36' E 010°38'815.0
2018-Feb-23 06:30N 59°29' E 010°35'714.9
2018-Feb-23 06:00N 59°21' E 010°35'815.4
2018-Feb-23 05:30N 59°14' E 010°38'815.2
2018-Feb-23 05:01N 59°06' E 010°40'815.1
2018-Feb-23 04:30N 58°59' E 010°43'714.9
2018-Feb-23 04:00N 58°52' E 010°45'1115.3
2018-Feb-23 03:16N 58°40' E 010°49'416.0
2018-Feb-23 03:00N 58°36' E 010°50'816.4
2018-Feb-23 02:30N 58°28' E 010°52'917.2
2018-Feb-23 02:00N 58°20' E 010°57'917.4
2018-Feb-23 01:30N 58°12' E 011°01'917.5
2018-Feb-23 01:00N 58°03' E 011°06'917.1
2018-Feb-23 00:30N 57°55' E 011°11'816.8
2018-Feb-23 00:00N 57°47' E 011°17'816.5
2018-Feb-22 23:30N 57°40' E 011°22'816.8
2018-Feb-22 23:00N 57°32' E 011°27'816.8
2018-Feb-22 22:30N 57°24' E 011°32'816.6
2018-Feb-22 22:00N 57°16' E 011°36'917.0
2018-Feb-22 21:30N 57°07' E 011°41'816.5
2018-Feb-22 21:00N 56°60' E 011°46'4516.5
2018-Feb-22 18:18N 56°20' E 012°22'517.3
2018-Feb-22 18:00N 56°15' E 012°25'917.2
2018-Feb-22 17:30N 56°07' E 012°32'816.7
2018-Feb-22 17:00N 56°00' E 012°41'816.2
2018-Feb-22 16:30N 55°53' E 012°45'815.6
2018-Feb-22 16:00N 55°45' E 012°41'4 8.4
2018-Feb-22 15:30N 55°42' E 012°36'0 0.0
2018-Feb-22 14:59N 55°42' E 012°36'0 0.0
2018-Feb-22 14:29N 55°42' E 012°36'0 0.0
2018-Feb-22 13:59N 55°42' E 012°36'0 0.0
2018-Feb-22 13:29N 55°42' E 012°36'0 0.0
2018-Feb-22 12:59N 55°42' E 012°36'0 0.0
2018-Feb-22 12:29N 55°42' E 012°36'0 0.0
2018-Feb-22 11:59N 55°42' E 012°36'0 0.0
2018-Feb-22 11:29N 55°42' E 012°36'0 0.0
2018-Feb-22 10:59N 55°42' E 012°36'0 0.0
2018-Feb-22 10:29N 55°42' E 012°36'0 0.0
2018-Feb-22 09:59N 55°42' E 012°36'0 0.0
2018-Feb-22 09:29N 55°42' E 012°36'0 0.0
2018-Feb-22 08:59N 55°42' E 012°36'1 1.4
2018-Feb-22 08:30N 55°43' E 012°37'713.6
2018-Feb-22 08:00N 55°49' E 012°42'815.5
2018-Feb-22 07:30N 55°56' E 012°40'815.3
2018-Feb-22 07:00N 56°04' E 012°38'714.8
2018-Feb-22 06:30N 56°09' E 012°29'815.2
2018-Feb-22 06:00N 56°17' E 012°24'815.1
2018-Feb-22 05:30N 56°24' E 012°20'916.5
2018-Feb-22 04:58N 56°32' E 012°15'4116.6
2018-Feb-22 02:31N 57°11' E 011°53'116.7
2018-Feb-22 02:28N 57°12' E 011°53'816.4
2018-Feb-22 02:00N 57°18' E 011°46'816.5
2018-Feb-22 01:30N 57°26' E 011°40'816.6
2018-Feb-22 01:00N 57°33' E 011°33'816.6
2018-Feb-22 00:31N 57°41' E 011°27'816.9
2018-Feb-22 00:00N 57°49' E 011°22'816.6
2018-Feb-21 23:30N 57°57' E 011°16'815.9
2018-Feb-21 23:00N 58°04' E 011°11'816.0
2018-Feb-21 22:30N 58°12' E 011°05'815.9
2018-Feb-21 22:00N 58°19' E 010°59'816.1
2018-Feb-21 21:30N 58°26' E 010°53'2215.9
2018-Feb-21 20:07N 58°48' E 010°44'216.6
2018-Feb-21 20:00N 58°50' E 010°44'816.8
2018-Feb-21 19:30N 58°58' E 010°42'816.6
2018-Feb-21 19:00N 59°06' E 010°39'816.6
2018-Feb-21 18:30N 59°14' E 010°37'816.8
2018-Feb-21 18:00N 59°23' E 010°34'816.5
2018-Feb-21 17:30N 59°31' E 010°35'816.0
2018-Feb-21 17:00N 59°39' E 010°37'612.8
2018-Feb-21 16:30N 59°45' E 010°33'815.2
2018-Feb-21 16:00N 59°52' E 010°38'4 8.1
2018-Feb-21 15:30N 59°54' E 010°45'0 0.0
2018-Feb-21 15:00N 59°54' E 010°45'0 0.0
2018-Feb-21 14:30N 59°54' E 010°45'0 0.0
2018-Feb-21 14:00N 59°54' E 010°45'0 0.0
2018-Feb-21 13:30N 59°54' E 010°45'0 0.0
2018-Feb-21 13:00N 59°54' E 010°45'0 0.0
2018-Feb-21 12:30N 59°54' E 010°45'0 0.0
2018-Feb-21 12:00N 59°54' E 010°45'0 0.0
2018-Feb-21 11:30N 59°54' E 010°45'0 0.0
2018-Feb-21 11:00N 59°54' E 010°45'0 0.0
2018-Feb-21 10:30N 59°54' E 010°45'0 0.0
2018-Feb-21 10:00N 59°54' E 010°45'0 0.0
2018-Feb-21 09:30N 59°54' E 010°45'0 0.0
2018-Feb-21 09:00N 59°54' E 010°45'0 0.7
2018-Feb-21 08:30N 59°54' E 010°44'714.1
2018-Feb-21 08:00N 59°49' E 010°35'612.2
2018-Feb-21 07:30N 59°43' E 010°36'714.2
2018-Feb-21 07:00N 59°36' E 010°38'815.2
2018-Feb-21 06:30N 59°28' E 010°34'715.0
2018-Feb-21 06:00N 59°21' E 010°35'815.2
2018-Feb-21 05:30N 59°13' E 010°38'815.3
2018-Feb-21 05:00N 59°06' E 010°40'815.3
2018-Feb-21 04:30N 58°58' E 010°43'815.3
2018-Feb-21 04:00N 58°51' E 010°46'815.6
2018-Feb-21 03:30N 58°43' E 010°48'816.4
2018-Feb-21 03:00N 58°35' E 010°51'816.8
2018-Feb-21 02:30N 58°27' E 010°54'917.1
2018-Feb-21 02:00N 58°19' E 010°59'917.2
2018-Feb-21 01:30N 58°10' E 011°04'917.4
2018-Feb-21 01:00N 58°02' E 011°08'917.3
2018-Feb-21 00:30N 57°54' E 011°13'816.9
2018-Feb-21 00:00N 57°46' E 011°18'816.0
2018-Feb-20 23:30N 57°38' E 011°24'816.0
2018-Feb-20 23:00N 57°31' E 011°30'816.3
2018-Feb-20 22:31N 57°23' E 011°32'816.1
2018-Feb-20 22:00N 57°15' E 011°36'816.2
2018-Feb-20 21:30N 57°07' E 011°41'816.4
2018-Feb-20 21:00N 56°60' E 011°47'4516.1
2018-Feb-20 18:11N 56°19' E 012°23'316.9
2018-Feb-20 18:00N 56°16' E 012°25'817.3
2018-Feb-20 17:30N 56°08' E 012°31'917.4
2018-Feb-20 17:00N 56°01' E 012°40'816.4
2018-Feb-20 16:30N 55°53' E 012°44'815.6
2018-Feb-20 16:00N 55°46' E 012°41'5 9.7
2018-Feb-20 15:30N 55°42' E 012°36'0 0.0
2018-Feb-20 15:00N 55°42' E 012°36'0 0.0
2018-Feb-20 14:30N 55°42' E 012°36'0 0.0
2018-Feb-20 14:00N 55°42' E 012°36'0 0.0
2018-Feb-20 13:30N 55°42' E 012°36'0 0.0
2018-Feb-20 13:01N 55°42' E 012°36'0 0.0
2018-Feb-20 12:30N 55°42' E 012°36'0 0.0
2018-Feb-20 12:00N 55°42' E 012°36'0 0.0
2018-Feb-20 11:30N 55°42' E 012°36'0 0.0
2018-Feb-20 11:01N 55°42' E 012°36'0 0.0
2018-Feb-20 10:30N 55°42' E 012°36'0 0.0
2018-Feb-20 10:00N 55°42' E 012°36'0 0.0
2018-Feb-20 09:31N 55°42' E 012°36'0 0.0
2018-Feb-20 09:00N 55°42' E 012°36'0 0.7
2018-Feb-20 08:31N 55°42' E 012°36'612.9
2018-Feb-20 08:01N 55°48' E 012°42'815.4
2018-Feb-20 07:30N 55°56' E 012°39'815.7
2018-Feb-20 07:01N 56°03' E 012°38'714.4
2018-Feb-20 06:31N 56°09' E 012°30'815.5
2018-Feb-20 06:00N 56°16' E 012°25'1015.9
2018-Feb-20 05:23N 56°25' E 012°19'717.2
2018-Feb-20 05:00N 56°32' E 012°16'4316.8
2018-Feb-20 02:25N 57°13' E 011°52'716.2
2018-Feb-20 02:01N 57°19' E 011°47'816.2
2018-Feb-20 01:31N 57°26' E 011°40'816.8
2018-Feb-20 01:01N 57°33' E 011°32'816.8
2018-Feb-20 00:31N 57°41' E 011°26'917.0
2018-Feb-20 00:00N 57°49' E 011°21'816.6
2018-Feb-19 23:30N 57°57' E 011°14'816.2
2018-Feb-19 23:01N 58°05' E 011°10'816.1
2018-Feb-19 22:30N 58°12' E 011°06'815.7
2018-Feb-19 22:01N 58°20' E 011°00'815.3
2018-Feb-19 21:30N 58°27' E 010°55'815.3
2018-Feb-19 21:00N 58°34' E 010°49'714.7
2018-Feb-19 20:31N 58°41' E 010°44'815.7
2018-Feb-19 20:01N 58°48' E 010°43'816.3
2018-Feb-19 19:31N 58°57' E 010°42'816.3
2018-Feb-19 19:01N 59°05' E 010°40'816.7
2018-Feb-19 18:31N 59°13' E 010°37'817.0
2018-Feb-19 18:01N 59°21' E 010°35'816.4
2018-Feb-19 17:31N 59°30' E 010°34'816.3
2018-Feb-19 17:01N 59°38' E 010°37'713.7
2018-Feb-19 16:31N 59°44' E 010°33'816.0
2018-Feb-19 16:00N 59°52' E 010°37'4 8.7
2018-Feb-19 15:30N 59°54' E 010°45'0 0.0
2018-Feb-19 14:59N 59°54' E 010°45'0 0.0
2018-Feb-19 14:29N 59°54' E 010°45'0 0.0
2018-Feb-19 13:59N 59°54' E 010°45'0 0.0
2018-Feb-19 13:29N 59°54' E 010°45'0 0.0
2018-Feb-19 12:59N 59°54' E 010°45'0 0.0
2018-Feb-19 12:29N 59°54' E 010°45'0 0.0
2018-Feb-19 11:59N 59°54' E 010°45'0 0.0
2018-Feb-19 11:29N 59°54' E 010°45'0 0.0
2018-Feb-19 10:59N 59°54' E 010°45'0 0.0
2018-Feb-19 10:29N 59°54' E 010°45'0 0.0
2018-Feb-19 09:59N 59°54' E 010°45'0 0.0
2018-Feb-19 09:29N 59°54' E 010°45'0 0.0
2018-Feb-19 08:59N 59°54' E 010°45'1 1.6
2018-Feb-19 08:31N 59°54' E 010°43'714.4
2018-Feb-19 08:01N 59°48' E 010°35'714.6
2018-Feb-19 07:31N 59°41' E 010°37'815.2
2018-Feb-19 07:00N 59°33' E 010°38'816.0
2018-Feb-19 06:30N 59°26' E 010°34'816.1
2018-Feb-19 06:00N 59°18' E 010°37'815.9
2018-Feb-19 05:30N 59°10' E 010°40'815.4
2018-Feb-19 05:00N 59°02' E 010°42'815.0
2018-Feb-19 04:30N 58°55' E 010°43'815.2
2018-Feb-19 04:00N 58°47' E 010°46'815.4
2018-Feb-19 03:30N 58°40' E 010°48'815.8
2018-Feb-19 03:00N 58°32' E 010°51'916.7
2018-Feb-19 02:29N 58°24' E 010°56'816.5
2018-Feb-19 02:00N 58°16' E 011°01'816.8
2018-Feb-19 01:30N 58°08' E 011°06'816.8
2018-Feb-19 01:00N 58°00' E 011°10'816.7
2018-Feb-19 00:30N 57°52' E 011°14'816.9
2018-Feb-19 00:00N 57°44' E 011°19'917.1
2018-Feb-18 23:30N 57°36' E 011°24'816.7
2018-Feb-18 23:00N 57°28' E 011°29'816.3
2018-Feb-18 22:30N 57°20' E 011°33'816.4
2018-Feb-18 22:00N 57°12' E 011°38'816.2
2018-Feb-18 21:30N 57°05' E 011°43'3316.1
2018-Feb-18 19:26N 56°35' E 012°11'715.5
2018-Feb-18 19:00N 56°29' E 012°16'1016.0
2018-Feb-18 18:21N 56°19' E 012°22'616.4
2018-Feb-18 18:00N 56°14' E 012°27'917.1
2018-Feb-18 17:30N 56°07' E 012°34'917.3
2018-Feb-18 17:00N 55°59' E 012°42'816.9
2018-Feb-18 16:30N 55°51' E 012°44'815.7
2018-Feb-18 16:00N 55°43' E 012°39'2 4.4
2018-Feb-18 15:30N 55°42' E 012°36'0 0.0
2018-Feb-18 15:00N 55°42' E 012°36'0 0.0
2018-Feb-18 14:30N 55°42' E 012°36'0 0.0
2018-Feb-18 14:00N 55°42' E 012°36'0 0.0
2018-Feb-18 13:30N 55°42' E 012°36'0 0.0
2018-Feb-18 13:00N 55°42' E 012°36'0 0.0
2018-Feb-18 12:30N 55°42' E 012°36'0 0.0
2018-Feb-18 12:00N 55°42' E 012°36'0 0.0
2018-Feb-18 11:30N 55°42' E 012°36'0 0.0
2018-Feb-18 11:00N 55°42' E 012°36'0 0.0
2018-Feb-18 10:30N 55°42' E 012°36'0 0.0
2018-Feb-18 10:00N 55°42' E 012°36'0 0.0
2018-Feb-18 09:30N 55°42' E 012°36'0 0.0
2018-Feb-18 09:00N 55°42' E 012°36'0 0.8
2018-Feb-18 08:30N 55°42' E 012°36'612.7
2018-Feb-18 08:00N 55°48' E 012°42'815.3
2018-Feb-18 07:30N 55°55' E 012°39'815.1
2018-Feb-18 07:01N 56°03' E 012°39'714.9
2018-Feb-18 06:30N 56°08' E 012°30'815.9
2018-Feb-18 06:00N 56°16' E 012°25'816.2
2018-Feb-18 05:30N 56°23' E 012°20'917.1
2018-Feb-18 04:59N 56°32' E 012°15'4617.1
2018-Feb-18 02:18N 57°16' E 011°50'516.8
2018-Feb-18 02:00N 57°20' E 011°45'917.4
2018-Feb-18 01:30N 57°28' E 011°39'917.7
2018-Feb-18 01:01N 57°36' E 011°31'917.1
2018-Feb-18 00:30N 57°44' E 011°26'917.5
2018-Feb-18 00:00N 57°52' E 011°20'816.5
2018-Feb-17 23:30N 57°60' E 011°15'815.1
2018-Feb-17 23:00N 58°07' E 011°10'715.1
2018-Feb-17 22:30N 58°14' E 011°04'714.4
2018-Feb-17 22:00N 58°21' E 010°60'714.2
2018-Feb-17 21:30N 58°27' E 010°55'714.4
2018-Feb-17 21:00N 58°34' E 010°51'714.1
2018-Feb-17 20:30N 58°41' E 010°46'714.3
2018-Feb-17 20:00N 58°48' E 010°44'815.8
2018-Feb-17 19:30N 58°56' E 010°42'816.3
2018-Feb-17 19:00N 59°04' E 010°40'816.6
2018-Feb-17 18:30N 59°12' E 010°38'816.5
2018-Feb-17 18:00N 59°20' E 010°35'816.7
2018-Feb-17 17:30N 59°28' E 010°34'816.5
2018-Feb-17 17:00N 59°36' E 010°38'714.2
2018-Feb-17 16:30N 59°43' E 010°34'815.9
2018-Feb-17 16:01N 59°51' E 010°36'510.4
2018-Feb-17 15:30N 59°54' E 010°45'0 0.1
2018-Feb-17 15:00N 59°54' E 010°45'0 0.0
2018-Feb-17 14:30N 59°54' E 010°45'0 0.0
2018-Feb-17 14:00N 59°54' E 010°45'0 0.0
2018-Feb-17 13:30N 59°54' E 010°45'0 0.0
2018-Feb-17 13:00N 59°54' E 010°45'0 0.0
2018-Feb-17 12:30N 59°54' E 010°45'0 0.0
2018-Feb-17 12:00N 59°54' E 010°45'0 0.0
2018-Feb-17 11:30N 59°54' E 010°45'0 0.0
2018-Feb-17 11:00N 59°54' E 010°45'0 0.0
2018-Feb-17 10:30N 59°54' E 010°45'0 0.0
2018-Feb-17 10:00N 59°54' E 010°45'0 0.0
2018-Feb-17 09:30N 59°54' E 010°45'0 0.0
2018-Feb-17 09:00N 59°54' E 010°45'0 0.7
2018-Feb-17 08:30N 59°54' E 010°44'714.2
2018-Feb-17 08:00N 59°49' E 010°35'815.1
2018-Feb-17 07:30N 59°41' E 010°36'714.5
2018-Feb-17 07:00N 59°34' E 010°38'816.0
2018-Feb-17 06:30N 59°26' E 010°34'816.2
2018-Feb-17 06:00N 59°18' E 010°36'816.3
2018-Feb-17 05:30N 59°10' E 010°39'816.2
2018-Feb-17 05:00N 59°02' E 010°38'816.2
2018-Feb-17 04:30N 58°54' E 010°36'917.6
2018-Feb-17 04:00N 58°45' E 010°35'917.8
2018-Feb-17 03:30N 58°36' E 010°36'917.2
2018-Feb-17 03:00N 58°28' E 010°39'917.3
2018-Feb-17 02:30N 58°20' E 010°45'917.2
2018-Feb-17 02:00N 58°11' E 010°49'917.4
2018-Feb-17 01:30N 58°03' E 010°53'917.3
2018-Feb-17 01:00N 57°55' E 010°58'917.1
2018-Feb-17 00:30N 57°47' E 011°03'815.7
2018-Feb-17 00:00N 57°40' E 011°11'713.3
2018-Feb-16 23:30N 57°35' E 011°19'917.6
2018-Feb-16 23:01N 57°27' E 011°27'816.8
2018-Feb-16 22:31N 57°20' E 011°33'816.7
2018-Feb-16 22:01N 57°12' E 011°37'816.7
2018-Feb-16 21:30N 57°04' E 011°43'1816.4
2018-Feb-16 20:23N 56°48' E 011°59'716.0
2018-Feb-16 19:56N 56°41' E 012°04'715.7
2018-Feb-16 19:31N 56°35' E 012°09'1815.5
2018-Feb-16 18:21N 56°18' E 012°21'515.6
2018-Feb-16 18:00N 56°14' E 012°26'815.3
2018-Feb-16 17:31N 56°07' E 012°33'713.8
2018-Feb-16 17:00N 56°01' E 012°41'714.8
2018-Feb-16 16:31N 55°54' E 012°44'714.9
2018-Feb-16 16:01N 55°47' E 012°42'611.9
2018-Feb-16 15:31N 55°42' E 012°36'0 0.2
2018-Feb-16 15:00N 55°42' E 012°36'0 0.0
2018-Feb-16 14:30N 55°42' E 012°36'0 0.0
2018-Feb-16 14:00N 55°42' E 012°36'0 0.0
2018-Feb-16 13:30N 55°42' E 012°36'0 0.0
2018-Feb-16 13:00N 55°42' E 012°36'0 0.0
2018-Feb-16 12:30N 55°42' E 012°36'0 0.0
2018-Feb-16 12:00N 55°42' E 012°36'0 0.0
2018-Feb-16 11:30N 55°42' E 012°36'0 0.0
2018-Feb-16 11:00N 55°42' E 012°36'0 0.0
2018-Feb-16 10:30N 55°42' E 012°36'0 0.0
2018-Feb-16 10:00N 55°42' E 012°36'0 0.0
2018-Feb-16 09:30N 55°42' E 012°36'0 0.0
2018-Feb-16 09:00N 55°42' E 012°36'1 2.7
2018-Feb-16 08:30N 55°43' E 012°38'815.2
2018-Feb-16 08:00N 55°50' E 012°42'816.6
2018-Feb-16 07:30N 55°58' E 012°40'817.0
2018-Feb-16 07:00N 56°06' E 012°34'917.6
2018-Feb-16 06:30N 56°14' E 012°26'1018.1
2018-Feb-16 05:57N 56°23' E 012°20'5418.9
2018-Feb-16 03:04N 57°15' E 011°51'118.9
2018-Feb-16 03:00N 57°16' E 011°50'918.3
2018-Feb-16 02:30N 57°24' E 011°42'917.4
2018-Feb-16 02:00N 57°32' E 011°34'917.1
2018-Feb-16 01:30N 57°40' E 011°28'917.7
2018-Feb-16 01:00N 57°48' E 011°22'816.8
2018-Feb-16 00:30N 57°56' E 011°17'815.4
2018-Feb-16 00:00N 58°03' E 011°12'714.5
2018-Feb-15 23:30N 58°10' E 011°07'714.1
2018-Feb-15 23:00N 58°17' E 011°03'714.3
2018-Feb-15 22:30N 58°23' E 010°58'714.8
2018-Feb-15 22:00N 58°30' E 010°54'816.0
2018-Feb-15 21:30N 58°38' E 010°50'714.0
2018-Feb-15 21:00N 58°45' E 010°47'714.2
2018-Feb-15 20:30N 58°52' E 010°45'714.4
2018-Feb-15 20:01N 58°59' E 010°42'713.8
2018-Feb-15 19:30N 59°06' E 010°40'713.6
2018-Feb-15 19:00N 59°13' E 010°37'713.8
2018-Feb-15 18:30N 59°19' E 010°35'713.3
2018-Feb-15 18:01N 59°26' E 010°33'714.2
2018-Feb-15 17:31N 59°33' E 010°36'714.2
2018-Feb-15 17:00N 59°40' E 010°37'713.1
2018-Feb-15 16:30N 59°46' E 010°33'713.6
2018-Feb-15 16:00N 59°52' E 010°39'3 6.8
2018-Feb-15 15:30N 59°54' E 010°45'0 0.0
2018-Feb-15 15:00N 59°54' E 010°45'0 0.0
2018-Feb-15 14:30N 59°54' E 010°45'0 0.0
2018-Feb-15 14:00N 59°54' E 010°45'0 0.0
2018-Feb-15 13:30N 59°54' E 010°45'0 0.0
2018-Feb-15 13:00N 59°54' E 010°45'0 0.0
2018-Feb-15 12:30N 59°54' E 010°45'0 0.0
2018-Feb-15 12:00N 59°54' E 010°45'0 0.0
2018-Feb-15 11:30N 59°54' E 010°45'0 0.0
2018-Feb-15 11:00N 59°54' E 010°45'0 0.0
2018-Feb-15 10:30N 59°54' E 010°45'0 0.0
2018-Feb-15 10:00N 59°54' E 010°45'0 0.0
2018-Feb-15 09:30N 59°54' E 010°45'0 0.0
2018-Feb-15 09:00N 59°54' E 010°45'0 0.5
2018-Feb-15 08:30N 59°54' E 010°44'511.1
2018-Feb-15 08:00N 59°50' E 010°36'714.8
2018-Feb-15 07:30N 59°43' E 010°35'713.5
2018-Feb-15 07:00N 59°36' E 010°38'714.7
2018-Feb-15 06:31N 59°29' E 010°35'815.1
2018-Feb-15 06:00N 59°22' E 010°36'815.8
2018-Feb-15 05:31N 59°14' E 010°38'815.6
2018-Feb-15 05:00N 59°06' E 010°41'815.1
2018-Feb-15 04:31N 58°59' E 010°42'714.5
2018-Feb-15 04:00N 58°51' E 010°44'815.4
2018-Feb-15 03:30N 58°44' E 010°46'815.8
2018-Feb-15 03:00N 58°36' E 010°48'815.8
2018-Feb-15 02:30N 58°28' E 010°53'815.4
2018-Feb-15 02:01N 58°21' E 010°57'917.1
2018-Feb-15 01:30N 58°13' E 011°02'816.4
2018-Feb-15 01:00N 58°05' E 011°06'816.8
2018-Feb-15 00:30N 57°57' E 011°11'917.1
2018-Feb-15 00:01N 57°49' E 011°16'  

Dump ship's entire track history